sensor_id;sensor_type;location;lat;lon;timestamp;P1;durP1;ratioP1;P2;durP2;ratioP2
5890;SDS011;2971;52.420;7.080;2023-05-16T00:01:12;14.77;;;4.63;;
5890;SDS011;2971;52.420;7.080;2023-05-16T00:03:37;8.97;;;4.00;;
5890;SDS011;2971;52.420;7.080;2023-05-16T00:06:03;9.40;;;3.93;;
5890;SDS011;2971;52.420;7.080;2023-05-16T00:08:30;10.17;;;3.80;;
5890;SDS011;2971;52.420;7.080;2023-05-16T00:10:55;11.87;;;4.23;;
5890;SDS011;2971;52.420;7.080;2023-05-16T00:13:20;12.70;;;4.30;;
5890;SDS011;2971;52.420;7.080;2023-05-16T00:15:49;15.50;;;5.00;;
5890;SDS011;2971;52.420;7.080;2023-05-16T00:18:21;13.37;;;4.40;;
5890;SDS011;2971;52.420;7.080;2023-05-16T00:20:49;13.10;;;4.67;;
5890;SDS011;2971;52.420;7.080;2023-05-16T00:23:16;13.37;;;4.27;;
5890;SDS011;2971;52.420;7.080;2023-05-16T00:25:42;17.50;;;4.67;;
5890;SDS011;2971;52.420;7.080;2023-05-16T00:28:08;12.97;;;4.07;;
5890;SDS011;2971;52.420;7.080;2023-05-16T00:30:34;13.87;;;4.70;;
5890;SDS011;2971;52.420;7.080;2023-05-16T00:33:00;11.67;;;3.97;;
5890;SDS011;2971;52.420;7.080;2023-05-16T00:35:26;15.07;;;4.73;;
5890;SDS011;2971;52.420;7.080;2023-05-16T00:37:51;14.10;;;4.13;;
5890;SDS011;2971;52.420;7.080;2023-05-16T00:40:17;15.80;;;4.97;;
5890;SDS011;2971;52.420;7.080;2023-05-16T00:42:42;14.23;;;4.93;;
5890;SDS011;2971;52.420;7.080;2023-05-16T00:45:08;15.83;;;4.73;;
5890;SDS011;2971;52.420;7.080;2023-05-16T00:47:34;14.13;;;5.47;;
5890;SDS011;2971;52.420;7.080;2023-05-16T00:50:00;16.40;;;5.03;;
5890;SDS011;2971;52.420;7.080;2023-05-16T00:52:26;16.20;;;4.77;;
5890;SDS011;2971;52.420;7.080;2023-05-16T00:54:52;17.63;;;5.50;;
5890;SDS011;2971;52.420;7.080;2023-05-16T00:57:18;16.93;;;5.13;;
5890;SDS011;2971;52.420;7.080;2023-05-16T00:59:44;20.13;;;5.97;;
5890;SDS011;2971;52.420;7.080;2023-05-16T01:02:10;17.77;;;5.63;;
5890;SDS011;2971;52.420;7.080;2023-05-16T01:04:37;18.63;;;6.37;;
5890;SDS011;2971;52.420;7.080;2023-05-16T01:07:02;18.47;;;5.53;;
5890;SDS011;2971;52.420;7.080;2023-05-16T01:09:28;18.90;;;5.83;;
5890;SDS011;2971;52.420;7.080;2023-05-16T01:16:57;17.43;;;5.27;;
5890;SDS011;2971;52.420;7.080;2023-05-16T01:22:11;16.93;;;4.90;;
5890;SDS011;2971;52.420;7.080;2023-05-16T01:27:31;18.83;;;5.07;;
5890;SDS011;2971;52.420;7.080;2023-05-16T01:29:57;18.73;;;5.03;;
5890;SDS011;2971;52.420;7.080;2023-05-16T01:32:22;19.63;;;4.70;;
5890;SDS011;2971;52.420;7.080;2023-05-16T01:34:49;18.00;;;4.53;;
5890;SDS011;2971;52.420;7.080;2023-05-16T01:39:51;17.80;;;5.47;;
5890;SDS011;2971;52.420;7.080;2023-05-16T01:42:21;18.07;;;5.10;;
5890;SDS011;2971;52.420;7.080;2023-05-16T01:47:49;20.23;;;5.33;;
5890;SDS011;2971;52.420;7.080;2023-05-16T01:50:18;15.57;;;4.47;;
5890;SDS011;2971;52.420;7.080;2023-05-16T01:55:15;20.47;;;4.47;;
5890;SDS011;2971;52.420;7.080;2023-05-16T01:57:48;14.13;;;4.40;;
5890;SDS011;2971;52.420;7.080;2023-05-16T02:00:14;16.10;;;4.47;;
5890;SDS011;2971;52.420;7.080;2023-05-16T02:02:40;14.70;;;4.07;;
5890;SDS011;2971;52.420;7.080;2023-05-16T02:05:05;16.93;;;4.73;;
5890;SDS011;2971;52.420;7.080;2023-05-16T02:07:31;17.13;;;4.17;;
5890;SDS011;2971;52.420;7.080;2023-05-16T02:09:56;15.27;;;4.40;;
5890;SDS011;2971;52.420;7.080;2023-05-16T02:12:22;18.17;;;4.27;;
5890;SDS011;2971;52.420;7.080;2023-05-16T02:14:48;22.60;;;4.57;;
5890;SDS011;2971;52.420;7.080;2023-05-16T02:17:14;19.63;;;4.37;;
5890;SDS011;2971;52.420;7.080;2023-05-16T02:19:39;16.57;;;3.70;;
5890;SDS011;2971;52.420;7.080;2023-05-16T02:22:04;18.20;;;4.23;;
5890;SDS011;2971;52.420;7.080;2023-05-16T02:24:30;17.40;;;3.90;;
5890;SDS011;2971;52.420;7.080;2023-05-16T02:26:55;18.53;;;3.67;;
5890;SDS011;2971;52.420;7.080;2023-05-16T02:29:21;17.03;;;4.03;;
5890;SDS011;2971;52.420;7.080;2023-05-16T02:31:46;15.40;;;3.80;;
5890;SDS011;2971;52.420;7.080;2023-05-16T02:34:12;17.03;;;4.90;;
5890;SDS011;2971;52.420;7.080;2023-05-16T02:36:37;15.93;;;5.07;;
5890;SDS011;2971;52.420;7.080;2023-05-16T02:39:03;20.13;;;5.30;;
5890;SDS011;2971;52.420;7.080;2023-05-16T02:41:28;14.47;;;4.00;;
5890;SDS011;2971;52.420;7.080;2023-05-16T02:43:55;16.23;;;3.47;;
5890;SDS011;2971;52.420;7.080;2023-05-16T02:46:31;15.23;;;3.23;;
5890;SDS011;2971;52.420;7.080;2023-05-16T02:48:58;12.70;;;3.70;;
5890;SDS011;2971;52.420;7.080;2023-05-16T02:51:25;14.43;;;3.30;;
5890;SDS011;2971;52.420;7.080;2023-05-16T02:53:51;17.50;;;3.63;;
5890;SDS011;2971;52.420;7.080;2023-05-16T02:56:17;15.50;;;3.70;;
5890;SDS011;2971;52.420;7.080;2023-05-16T02:58:45;15.60;;;4.33;;
5890;SDS011;2971;52.420;7.080;2023-05-16T03:01:11;17.77;;;3.73;;
5890;SDS011;2971;52.420;7.080;2023-05-16T03:03:37;14.20;;;3.47;;
5890;SDS011;2971;52.420;7.080;2023-05-16T03:06:02;13.13;;;3.13;;
5890;SDS011;2971;52.420;7.080;2023-05-16T03:08:28;16.30;;;4.50;;
5890;SDS011;2971;52.420;7.080;2023-05-16T03:10:53;14.07;;;4.03;;
5890;SDS011;2971;52.420;7.080;2023-05-16T03:13:18;18.03;;;4.13;;
5890;SDS011;2971;52.420;7.080;2023-05-16T03:15:44;16.73;;;4.47;;
5890;SDS011;2971;52.420;7.080;2023-05-16T03:18:10;17.67;;;3.90;;
5890;SDS011;2971;52.420;7.080;2023-05-16T03:20:36;15.70;;;3.60;;
5890;SDS011;2971;52.420;7.080;2023-05-16T03:23:02;17.23;;;3.73;;
5890;SDS011;2971;52.420;7.080;2023-05-16T03:25:27;16.00;;;3.70;;
5890;SDS011;2971;52.420;7.080;2023-05-16T03:27:53;15.60;;;4.03;;
5890;SDS011;2971;52.420;7.080;2023-05-16T03:30:18;14.73;;;3.70;;
5890;SDS011;2971;52.420;7.080;2023-05-16T03:32:44;16.53;;;3.57;;
5890;SDS011;2971;52.420;7.080;2023-05-16T03:35:10;17.60;;;4.27;;
5890;SDS011;2971;52.420;7.080;2023-05-16T03:37:36;20.07;;;3.80;;
5890;SDS011;2971;52.420;7.080;2023-05-16T03:40:02;14.10;;;3.90;;
5890;SDS011;2971;52.420;7.080;2023-05-16T03:42:31;15.83;;;4.10;;
5890;SDS011;2971;52.420;7.080;2023-05-16T03:44:56;18.50;;;4.10;;
5890;SDS011;2971;52.420;7.080;2023-05-16T03:47:22;17.90;;;3.83;;
5890;SDS011;2971;52.420;7.080;2023-05-16T03:49:47;12.70;;;4.00;;
5890;SDS011;2971;52.420;7.080;2023-05-16T03:52:13;14.93;;;4.03;;
5890;SDS011;2971;52.420;7.080;2023-05-16T03:54:38;17.03;;;4.53;;
5890;SDS011;2971;52.420;7.080;2023-05-16T03:57:04;19.47;;;4.87;;
5890;SDS011;2971;52.420;7.080;2023-05-16T03:59:30;17.47;;;3.97;;
5890;SDS011;2971;52.420;7.080;2023-05-16T04:01:55;17.50;;;3.97;;
5890;SDS011;2971;52.420;7.080;2023-05-16T04:04:20;16.60;;;3.90;;
5890;SDS011;2971;52.420;7.080;2023-05-16T04:06:46;15.20;;;3.63;;
5890;SDS011;2971;52.420;7.080;2023-05-16T04:09:11;16.90;;;3.97;;
5890;SDS011;2971;52.420;7.080;2023-05-16T04:11:37;23.73;;;4.53;;
5890;SDS011;2971;52.420;7.080;2023-05-16T04:14:03;17.00;;;4.57;;
5890;SDS011;2971;52.420;7.080;2023-05-16T04:16:28;13.67;;;4.03;;
5890;SDS011;2971;52.420;7.080;2023-05-16T04:18:54;10.80;;;3.40;;
5890;SDS011;2971;52.420;7.080;2023-05-16T04:21:20;16.13;;;4.40;;
5890;SDS011;2971;52.420;7.080;2023-05-16T04:23:46;15.30;;;3.90;;
5890;SDS011;2971;52.420;7.080;2023-05-16T04:26:12;15.00;;;3.40;;
5890;SDS011;2971;52.420;7.080;2023-05-16T04:28:38;14.13;;;4.10;;
5890;SDS011;2971;52.420;7.080;2023-05-16T04:31:04;20.27;;;4.47;;
5890;SDS011;2971;52.420;7.080;2023-05-16T04:33:30;18.30;;;4.13;;
5890;SDS011;2971;52.420;7.080;2023-05-16T04:35:55;18.63;;;3.87;;
5890;SDS011;2971;52.420;7.080;2023-05-16T04:38:22;13.43;;;3.50;;
5890;SDS011;2971;52.420;7.080;2023-05-16T04:40:48;16.83;;;4.03;;
5890;SDS011;2971;52.420;7.080;2023-05-16T04:43:14;18.60;;;3.77;;
5890;SDS011;2971;52.420;7.080;2023-05-16T04:45:40;17.07;;;4.30;;
5890;SDS011;2971;52.420;7.080;2023-05-16T04:48:06;20.87;;;4.63;;
5890;SDS011;2971;52.420;7.080;2023-05-16T04:50:32;16.73;;;3.60;;
5890;SDS011;2971;52.420;7.080;2023-05-16T04:52:58;15.90;;;3.80;;
5890;SDS011;2971;52.420;7.080;2023-05-16T04:55:23;14.77;;;4.00;;
5890;SDS011;2971;52.420;7.080;2023-05-16T04:57:48;14.63;;;4.00;;
5890;SDS011;2971;52.420;7.080;2023-05-16T05:00:14;15.90;;;4.17;;
5890;SDS011;2971;52.420;7.080;2023-05-16T05:02:40;16.50;;;3.63;;
5890;SDS011;2971;52.420;7.080;2023-05-16T05:05:06;13.73;;;3.40;;
5890;SDS011;2971;52.420;7.080;2023-05-16T05:07:32;12.13;;;3.37;;
5890;SDS011;2971;52.420;7.080;2023-05-16T05:09:57;14.60;;;3.90;;
5890;SDS011;2971;52.420;7.080;2023-05-16T05:12:23;19.20;;;4.53;;
5890;SDS011;2971;52.420;7.080;2023-05-16T05:14:49;14.83;;;3.73;;
5890;SDS011;2971;52.420;7.080;2023-05-16T05:17:15;14.97;;;3.67;;
5890;SDS011;2971;52.420;7.080;2023-05-16T05:19:41;12.83;;;3.93;;
5890;SDS011;2971;52.420;7.080;2023-05-16T05:22:06;13.07;;;3.87;;
5890;SDS011;2971;52.420;7.080;2023-05-16T05:24:32;16.03;;;4.50;;
5890;SDS011;2971;52.420;7.080;2023-05-16T05:26:57;11.30;;;3.60;;
5890;SDS011;2971;52.420;7.080;2023-05-16T05:29:23;15.83;;;4.27;;
5890;SDS011;2971;52.420;7.080;2023-05-16T05:31:48;16.97;;;4.47;;
5890;SDS011;2971;52.420;7.080;2023-05-16T05:34:16;13.03;;;3.77;;
5890;SDS011;2971;52.420;7.080;2023-05-16T05:36:42;13.60;;;3.77;;
5890;SDS011;2971;52.420;7.080;2023-05-16T05:39:08;13.23;;;3.80;;
5890;SDS011;2971;52.420;7.080;2023-05-16T05:41:34;18.30;;;4.23;;
5890;SDS011;2971;52.420;7.080;2023-05-16T05:43:59;16.37;;;4.27;;
5890;SDS011;2971;52.420;7.080;2023-05-16T05:46:25;15.00;;;4.10;;
5890;SDS011;2971;52.420;7.080;2023-05-16T05:48:50;11.47;;;3.87;;
5890;SDS011;2971;52.420;7.080;2023-05-16T05:51:18;12.37;;;4.23;;
5890;SDS011;2971;52.420;7.080;2023-05-16T05:53:44;15.80;;;4.67;;
5890;SDS011;2971;52.420;7.080;2023-05-16T05:56:09;13.07;;;3.87;;
5890;SDS011;2971;52.420;7.080;2023-05-16T05:58:35;16.17;;;4.40;;
5890;SDS011;2971;52.420;7.080;2023-05-16T06:01:00;14.37;;;4.13;;
5890;SDS011;2971;52.420;7.080;2023-05-16T06:03:26;13.57;;;4.10;;
5890;SDS011;2971;52.420;7.080;2023-05-16T06:05:52;13.83;;;3.83;;
5890;SDS011;2971;52.420;7.080;2023-05-16T06:08:17;13.83;;;3.87;;
5890;SDS011;2971;52.420;7.080;2023-05-16T06:10:43;12.30;;;3.80;;
5890;SDS011;2971;52.420;7.080;2023-05-16T06:13:08;15.70;;;4.13;;
5890;SDS011;2971;52.420;7.080;2023-05-16T06:15:33;11.00;;;3.70;;
5890;SDS011;2971;52.420;7.080;2023-05-16T06:17:59;10.17;;;3.30;;
5890;SDS011;2971;52.420;7.080;2023-05-16T06:20:24;13.60;;;3.87;;
5890;SDS011;2971;52.420;7.080;2023-05-16T06:22:50;11.57;;;3.67;;
5890;SDS011;2971;52.420;7.080;2023-05-16T06:25:15;10.93;;;3.50;;
5890;SDS011;2971;52.420;7.080;2023-05-16T06:27:41;12.13;;;3.67;;
5890;SDS011;2971;52.420;7.080;2023-05-16T06:30:06;11.00;;;3.37;;
5890;SDS011;2971;52.420;7.080;2023-05-16T06:32:32;12.77;;;4.07;;
5890;SDS011;2971;52.420;7.080;2023-05-16T06:34:58;10.13;;;3.33;;
5890;SDS011;2971;52.420;7.080;2023-05-16T06:37:23;10.23;;;3.53;;
5890;SDS011;2971;52.420;7.080;2023-05-16T06:39:50;11.43;;;3.20;;
5890;SDS011;2971;52.420;7.080;2023-05-16T06:42:15;12.13;;;3.03;;
5890;SDS011;2971;52.420;7.080;2023-05-16T06:44:41;13.23;;;3.07;;
5890;SDS011;2971;52.420;7.080;2023-05-16T06:47:06;12.67;;;3.00;;
5890;SDS011;2971;52.420;7.080;2023-05-16T06:49:32;12.57;;;3.03;;
5890;SDS011;2971;52.420;7.080;2023-05-16T06:51:58;10.07;;;3.27;;
5890;SDS011;2971;52.420;7.080;2023-05-16T06:54:23;10.90;;;3.30;;
5890;SDS011;2971;52.420;7.080;2023-05-16T06:56:49;12.87;;;3.20;;
5890;SDS011;2971;52.420;7.080;2023-05-16T06:59:14;11.50;;;3.43;;
5890;SDS011;2971;52.420;7.080;2023-05-16T07:01:40;11.77;;;3.97;;
5890;SDS011;2971;52.420;7.080;2023-05-16T07:04:06;10.87;;;3.00;;
5890;SDS011;2971;52.420;7.080;2023-05-16T07:06:31;9.67;;;3.10;;
5890;SDS011;2971;52.420;7.080;2023-05-16T07:08:57;10.43;;;3.10;;
5890;SDS011;2971;52.420;7.080;2023-05-16T07:11:22;11.07;;;2.90;;
5890;SDS011;2971;52.420;7.080;2023-05-16T07:13:48;9.90;;;2.90;;
5890;SDS011;2971;52.420;7.080;2023-05-16T07:16:13;9.93;;;2.70;;
5890;SDS011;2971;52.420;7.080;2023-05-16T07:18:39;10.47;;;2.77;;
5890;SDS011;2971;52.420;7.080;2023-05-16T07:21:04;8.67;;;2.80;;
5890;SDS011;2971;52.420;7.080;2023-05-16T07:23:30;9.53;;;2.90;;
5890;SDS011;2971;52.420;7.080;2023-05-16T07:25:56;9.07;;;2.87;;
5890;SDS011;2971;52.420;7.080;2023-05-16T07:28:21;8.67;;;2.90;;
5890;SDS011;2971;52.420;7.080;2023-05-16T07:30:47;7.70;;;2.27;;
5890;SDS011;2971;52.420;7.080;2023-05-16T07:33:13;8.03;;;2.67;;
5890;SDS011;2971;52.420;7.080;2023-05-16T07:35:38;8.63;;;2.60;;
5890;SDS011;2971;52.420;7.080;2023-05-16T07:38:04;10.70;;;2.93;;
5890;SDS011;2971;52.420;7.080;2023-05-16T07:40:29;7.93;;;2.77;;
5890;SDS011;2971;52.420;7.080;2023-05-16T07:42:55;13.07;;;3.33;;
5890;SDS011;2971;52.420;7.080;2023-05-16T07:45:22;8.33;;;2.30;;
5890;SDS011;2971;52.420;7.080;2023-05-16T07:47:47;9.37;;;2.30;;
5890;SDS011;2971;52.420;7.080;2023-05-16T07:50:12;7.53;;;2.33;;
5890;SDS011;2971;52.420;7.080;2023-05-16T07:52:38;6.13;;;2.37;;
5890;SDS011;2971;52.420;7.080;2023-05-16T07:55:03;7.93;;;2.30;;
5890;SDS011;2971;52.420;7.080;2023-05-16T07:57:29;9.00;;;2.47;;
5890;SDS011;2971;52.420;7.080;2023-05-16T07:59:55;12.40;;;2.50;;
5890;SDS011;2971;52.420;7.080;2023-05-16T08:02:21;10.23;;;2.57;;
5890;SDS011;2971;52.420;7.080;2023-05-16T08:04:48;7.50;;;2.33;;
5890;SDS011;2971;52.420;7.080;2023-05-16T08:07:14;7.97;;;2.30;;
5890;SDS011;2971;52.420;7.080;2023-05-16T08:09:39;10.67;;;2.73;;
5890;SDS011;2971;52.420;7.080;2023-05-16T08:12:05;5.17;;;2.33;;
5890;SDS011;2971;52.420;7.080;2023-05-16T08:14:31;7.53;;;2.00;;
5890;SDS011;2971;52.420;7.080;2023-05-16T08:17:00;8.23;;;2.40;;
5890;SDS011;2971;52.420;7.080;2023-05-16T08:19:26;13.90;;;2.80;;
5890;SDS011;2971;52.420;7.080;2023-05-16T08:21:51;6.13;;;2.30;;
5890;SDS011;2971;52.420;7.080;2023-05-16T08:24:17;8.60;;;2.50;;
5890;SDS011;2971;52.420;7.080;2023-05-16T08:26:42;6.53;;;2.27;;
5890;SDS011;2971;52.420;7.080;2023-05-16T08:29:08;6.07;;;2.40;;
5890;SDS011;2971;52.420;7.080;2023-05-16T08:31:33;9.73;;;2.20;;
5890;SDS011;2971;52.420;7.080;2023-05-16T08:33:58;8.20;;;2.17;;
5890;SDS011;2971;52.420;7.080;2023-05-16T08:36:25;7.10;;;2.10;;
5890;SDS011;2971;52.420;7.080;2023-05-16T08:38:51;7.57;;;2.63;;
5890;SDS011;2971;52.420;7.080;2023-05-16T08:41:17;5.60;;;2.23;;
5890;SDS011;2971;52.420;7.080;2023-05-16T08:43:42;7.27;;;2.30;;
5890;SDS011;2971;52.420;7.080;2023-05-16T08:46:08;6.07;;;2.10;;
5890;SDS011;2971;52.420;7.080;2023-05-16T08:48:33;5.47;;;1.70;;
5890;SDS011;2971;52.420;7.080;2023-05-16T08:51:02;3.50;;;1.60;;
5890;SDS011;2971;52.420;7.080;2023-05-16T08:53:31;5.80;;;1.80;;
5890;SDS011;2971;52.420;7.080;2023-05-16T08:55:59;3.87;;;1.67;;
5890;SDS011;2971;52.420;7.080;2023-05-16T08:58:25;5.57;;;2.00;;
5890;SDS011;2971;52.420;7.080;2023-05-16T09:00:52;7.07;;;2.37;;
5890;SDS011;2971;52.420;7.080;2023-05-16T09:03:17;5.27;;;2.10;;
5890;SDS011;2971;52.420;7.080;2023-05-16T09:05:45;8.67;;;2.50;;
5890;SDS011;2971;52.420;7.080;2023-05-16T09:08:10;7.80;;;2.53;;
5890;SDS011;2971;52.420;7.080;2023-05-16T09:10:36;7.97;;;2.37;;
5890;SDS011;2971;52.420;7.080;2023-05-16T09:13:01;5.87;;;2.13;;
5890;SDS011;2971;52.420;7.080;2023-05-16T09:15:30;6.13;;;2.10;;
5890;SDS011;2971;52.420;7.080;2023-05-16T09:17:58;6.13;;;2.20;;
5890;SDS011;2971;52.420;7.080;2023-05-16T09:20:24;6.87;;;2.10;;
5890;SDS011;2971;52.420;7.080;2023-05-16T09:22:54;4.37;;;1.80;;
5890;SDS011;2971;52.420;7.080;2023-05-16T09:25:22;7.57;;;2.23;;
5890;SDS011;2971;52.420;7.080;2023-05-16T09:27:51;6.90;;;2.30;;
5890;SDS011;2971;52.420;7.080;2023-05-16T09:30:20;4.50;;;1.60;;
5890;SDS011;2971;52.420;7.080;2023-05-16T09:32:46;7.23;;;3.07;;
5890;SDS011;2971;52.420;7.080;2023-05-16T09:35:15;7.77;;;1.87;;
5890;SDS011;2971;52.420;7.080;2023-05-16T09:37:44;7.07;;;2.00;;
5890;SDS011;2971;52.420;7.080;2023-05-16T09:40:13;8.87;;;4.83;;
5890;SDS011;2971;52.420;7.080;2023-05-16T09:42:40;6.50;;;2.00;;
5890;SDS011;2971;52.420;7.080;2023-05-16T09:45:06;11.93;;;2.03;;
5890;SDS011;2971;52.420;7.080;2023-05-16T09:47:36;6.07;;;2.10;;
5890;SDS011;2971;52.420;7.080;2023-05-16T09:50:09;7.87;;;1.90;;
5890;SDS011;2971;52.420;7.080;2023-05-16T09:52:36;5.17;;;1.80;;
5890;SDS011;2971;52.420;7.080;2023-05-16T09:55:02;6.07;;;2.10;;
5890;SDS011;2971;52.420;7.080;2023-05-16T09:57:31;4.30;;;1.90;;
5890;SDS011;2971;52.420;7.080;2023-05-16T09:59:57;5.80;;;2.00;;
5890;SDS011;2971;52.420;7.080;2023-05-16T10:02:25;5.33;;;1.80;;
5890;SDS011;2971;52.420;7.080;2023-05-16T10:04:50;7.43;;;2.30;;
5890;SDS011;2971;52.420;7.080;2023-05-16T10:07:16;7.20;;;1.87;;
5890;SDS011;2971;52.420;7.080;2023-05-16T10:09:41;8.47;;;1.90;;
5890;SDS011;2971;52.420;7.080;2023-05-16T10:12:07;4.40;;;1.63;;
5890;SDS011;2971;52.420;7.080;2023-05-16T10:14:36;5.00;;;2.00;;
5890;SDS011;2971;52.420;7.080;2023-05-16T10:17:08;10.17;;;2.40;;
5890;SDS011;2971;52.420;7.080;2023-05-16T10:19:37;7.23;;;2.20;;
5890;SDS011;2971;52.420;7.080;2023-05-16T10:22:04;5.20;;;2.00;;
5890;SDS011;2971;52.420;7.080;2023-05-16T10:24:45;7.00;;;1.90;;
5890;SDS011;2971;52.420;7.080;2023-05-16T10:27:14;4.37;;;2.10;;
5890;SDS011;2971;52.420;7.080;2023-05-16T10:29:39;7.33;;;2.30;;
5890;SDS011;2971;52.420;7.080;2023-05-16T10:32:05;6.90;;;2.30;;
5890;SDS011;2971;52.420;7.080;2023-05-16T10:34:32;9.77;;;2.47;;
5890;SDS011;2971;52.420;7.080;2023-05-16T10:36:58;6.90;;;2.20;;
5890;SDS011;2971;52.420;7.080;2023-05-16T10:39:23;6.20;;;1.80;;
5890;SDS011;2971;52.420;7.080;2023-05-16T10:41:49;5.40;;;2.00;;
5890;SDS011;2971;52.420;7.080;2023-05-16T10:44:15;6.13;;;2.00;;
5890;SDS011;2971;52.420;7.080;2023-05-16T10:46:41;5.90;;;1.80;;
5890;SDS011;2971;52.420;7.080;2023-05-16T10:51:45;6.57;;;1.97;;
5890;SDS011;2971;52.420;7.080;2023-05-16T10:55:12;6.70;;;2.10;;
5890;SDS011;2971;52.420;7.080;2023-05-16T10:57:21;4.27;;;1.90;;
5890;SDS011;2971;52.420;7.080;2023-05-16T10:59:48;4.07;;;2.07;;
5890;SDS011;2971;52.420;7.080;2023-05-16T11:04:48;4.73;;;2.03;;
5890;SDS011;2971;52.420;7.080;2023-05-16T11:07:15;5.07;;;1.90;;
5890;SDS011;2971;52.420;7.080;2023-05-16T11:09:42;5.17;;;2.13;;
5890;SDS011;2971;52.420;7.080;2023-05-16T11:12:09;3.87;;;2.03;;
5890;SDS011;2971;52.420;7.080;2023-05-16T11:14:38;5.20;;;1.83;;
5890;SDS011;2971;52.420;7.080;2023-05-16T11:17:07;5.30;;;1.87;;
5890;SDS011;2971;52.420;7.080;2023-05-16T11:19:34;7.43;;;2.27;;
5890;SDS011;2971;52.420;7.080;2023-05-16T11:22:12;7.97;;;2.30;;
5890;SDS011;2971;52.420;7.080;2023-05-16T11:24:51;8.33;;;2.20;;
5890;SDS011;2971;52.420;7.080;2023-05-16T11:27:21;5.77;;;2.27;;
5890;SDS011;2971;52.420;7.080;2023-05-16T11:29:54;6.47;;;1.90;;
5890;SDS011;2971;52.420;7.080;2023-05-16T11:32:23;6.60;;;1.90;;
5890;SDS011;2971;52.420;7.080;2023-05-16T11:34:49;6.93;;;1.93;;
5890;SDS011;2971;52.420;7.080;2023-05-16T11:37:16;4.83;;;1.93;;
5890;SDS011;2971;52.420;7.080;2023-05-16T11:39:42;3.97;;;1.83;;
5890;SDS011;2971;52.420;7.080;2023-05-16T11:42:07;4.43;;;1.90;;
5890;SDS011;2971;52.420;7.080;2023-05-16T11:44:33;6.03;;;2.03;;
5890;SDS011;2971;52.420;7.080;2023-05-16T11:46:59;6.73;;;2.13;;
5890;SDS011;2971;52.420;7.080;2023-05-16T11:49:26;6.37;;;2.20;;
5890;SDS011;2971;52.420;7.080;2023-05-16T11:51:53;6.13;;;2.33;;
5890;SDS011;2971;52.420;7.080;2023-05-16T11:54:18;5.30;;;2.07;;
5890;SDS011;2971;52.420;7.080;2023-05-16T11:56:44;3.60;;;1.70;;
5890;SDS011;2971;52.420;7.080;2023-05-16T11:59:10;5.83;;;1.73;;
5890;SDS011;2971;52.420;7.080;2023-05-16T12:01:38;6.60;;;2.00;;
5890;SDS011;2971;52.420;7.080;2023-05-16T12:04:07;6.40;;;1.83;;
5890;SDS011;2971;52.420;7.080;2023-05-16T12:06:36;5.50;;;1.80;;
5890;SDS011;2971;52.420;7.080;2023-05-16T12:09:03;6.80;;;2.10;;
5890;SDS011;2971;52.420;7.080;2023-05-16T12:11:37;4.97;;;1.50;;
5890;SDS011;2971;52.420;7.080;2023-05-16T12:14:03;5.00;;;2.03;;
5890;SDS011;2971;52.420;7.080;2023-05-16T12:16:29;5.23;;;2.00;;
5890;SDS011;2971;52.420;7.080;2023-05-16T12:18:55;7.40;;;2.20;;
5890;SDS011;2971;52.420;7.080;2023-05-16T12:21:21;8.13;;;2.20;;
5890;SDS011;2971;52.420;7.080;2023-05-16T12:23:46;6.23;;;2.03;;
5890;SDS011;2971;52.420;7.080;2023-05-16T12:26:12;5.47;;;2.00;;
5890;SDS011;2971;52.420;7.080;2023-05-16T12:28:38;5.30;;;1.83;;
5890;SDS011;2971;52.420;7.080;2023-05-16T12:31:10;5.73;;;1.80;;
5890;SDS011;2971;52.420;7.080;2023-05-16T12:33:36;4.77;;;1.70;;
5890;SDS011;2971;52.420;7.080;2023-05-16T12:36:02;4.47;;;1.87;;
5890;SDS011;2971;52.420;7.080;2023-05-16T12:38:29;7.63;;;2.27;;
5890;SDS011;2971;52.420;7.080;2023-05-16T12:40:58;4.10;;;2.03;;
5890;SDS011;2971;52.420;7.080;2023-05-16T12:43:23;4.47;;;1.90;;
5890;SDS011;2971;52.420;7.080;2023-05-16T12:45:52;5.17;;;1.90;;
5890;SDS011;2971;52.420;7.080;2023-05-16T12:48:18;6.27;;;2.20;;
5890;SDS011;2971;52.420;7.080;2023-05-16T12:50:44;5.13;;;1.70;;
5890;SDS011;2971;52.420;7.080;2023-05-16T12:53:14;8.47;;;1.77;;
5890;SDS011;2971;52.420;7.080;2023-05-16T12:55:41;5.10;;;1.67;;
5890;SDS011;2971;52.420;7.080;2023-05-16T12:58:07;3.50;;;1.53;;
5890;SDS011;2971;52.420;7.080;2023-05-16T13:00:33;4.07;;;1.50;;
5890;SDS011;2971;52.420;7.080;2023-05-16T13:03:00;4.23;;;2.00;;
5890;SDS011;2971;52.420;7.080;2023-05-16T13:05:26;8.27;;;2.60;;
5890;SDS011;2971;52.420;7.080;2023-05-16T13:07:51;8.53;;;2.40;;
5890;SDS011;2971;52.420;7.080;2023-05-16T13:10:17;5.77;;;2.47;;
5890;SDS011;2971;52.420;7.080;2023-05-16T13:12:43;5.30;;;2.57;;
5890;SDS011;2971;52.420;7.080;2023-05-16T13:15:09;7.90;;;2.40;;
5890;SDS011;2971;52.420;7.080;2023-05-16T13:17:38;7.03;;;2.97;;
5890;SDS011;2971;52.420;7.080;2023-05-16T13:20:05;9.07;;;2.63;;
5890;SDS011;2971;52.420;7.080;2023-05-16T13:22:36;5.63;;;2.40;;
5890;SDS011;2971;52.420;7.080;2023-05-16T13:25:02;5.90;;;2.47;;
5890;SDS011;2971;52.420;7.080;2023-05-16T13:27:29;4.77;;;2.40;;
5890;SDS011;2971;52.420;7.080;2023-05-16T13:29:54;5.40;;;2.20;;
5890;SDS011;2971;52.420;7.080;2023-05-16T13:32:19;5.33;;;2.30;;
5890;SDS011;2971;52.420;7.080;2023-05-16T13:34:45;4.27;;;2.20;;
5890;SDS011;2971;52.420;7.080;2023-05-16T13:37:10;4.63;;;1.90;;
5890;SDS011;2971;52.420;7.080;2023-05-16T13:39:36;4.10;;;2.23;;
5890;SDS011;2971;52.420;7.080;2023-05-16T13:42:02;4.67;;;2.60;;
5890;SDS011;2971;52.420;7.080;2023-05-16T13:44:28;5.10;;;2.23;;
5890;SDS011;2971;52.420;7.080;2023-05-16T13:46:53;4.87;;;2.27;;
5890;SDS011;2971;52.420;7.080;2023-05-16T13:49:18;4.33;;;2.17;;
5890;SDS011;2971;52.420;7.080;2023-05-16T13:51:44;4.50;;;2.40;;
5890;SDS011;2971;52.420;7.080;2023-05-16T13:54:11;5.23;;;2.20;;
5890;SDS011;2971;52.420;7.080;2023-05-16T13:56:36;4.43;;;2.00;;
5890;SDS011;2971;52.420;7.080;2023-05-16T13:59:02;3.83;;;1.80;;
5890;SDS011;2971;52.420;7.080;2023-05-16T14:01:27;4.50;;;1.87;;
5890;SDS011;2971;52.420;7.080;2023-05-16T14:03:53;3.80;;;2.17;;
5890;SDS011;2971;52.420;7.080;2023-05-16T14:06:18;7.07;;;2.30;;
5890;SDS011;2971;52.420;7.080;2023-05-16T14:08:44;6.13;;;3.03;;
5890;SDS011;2971;52.420;7.080;2023-05-16T14:11:10;5.37;;;2.70;;
5890;SDS011;2971;52.420;7.080;2023-05-16T14:13:35;3.77;;;2.50;;
5890;SDS011;2971;52.420;7.080;2023-05-16T14:16:00;6.27;;;2.67;;
5890;SDS011;2971;52.420;7.080;2023-05-16T14:18:26;7.20;;;3.13;;
5890;SDS011;2971;52.420;7.080;2023-05-16T14:20:51;5.63;;;2.97;;
5890;SDS011;2971;52.420;7.080;2023-05-16T14:23:20;9.83;;;3.20;;
5890;SDS011;2971;52.420;7.080;2023-05-16T14:25:45;8.30;;;3.40;;
5890;SDS011;2971;52.420;7.080;2023-05-16T14:28:11;6.00;;;2.90;;
5890;SDS011;2971;52.420;7.080;2023-05-16T14:30:36;9.30;;;3.17;;
5890;SDS011;2971;52.420;7.080;2023-05-16T14:33:02;6.10;;;2.80;;
5890;SDS011;2971;52.420;7.080;2023-05-16T14:35:27;5.57;;;2.60;;
5890;SDS011;2971;52.420;7.080;2023-05-16T14:37:53;7.67;;;3.03;;
5890;SDS011;2971;52.420;7.080;2023-05-16T14:40:18;5.63;;;3.03;;
5890;SDS011;2971;52.420;7.080;2023-05-16T14:42:45;6.53;;;3.07;;
5890;SDS011;2971;52.420;7.080;2023-05-16T14:45:11;7.50;;;3.20;;
5890;SDS011;2971;52.420;7.080;2023-05-16T14:47:36;5.60;;;2.57;;
5890;SDS011;2971;52.420;7.080;2023-05-16T14:50:02;7.07;;;3.07;;
5890;SDS011;2971;52.420;7.080;2023-05-16T14:52:28;4.97;;;2.70;;
5890;SDS011;2971;52.420;7.080;2023-05-16T14:54:54;8.00;;;3.43;;
5890;SDS011;2971;52.420;7.080;2023-05-16T14:57:20;5.37;;;3.10;;
5890;SDS011;2971;52.420;7.080;2023-05-16T14:59:45;9.50;;;3.90;;
5890;SDS011;2971;52.420;7.080;2023-05-16T15:02:12;5.90;;;3.73;;
5890;SDS011;2971;52.420;7.080;2023-05-16T15:04:37;7.13;;;3.53;;
5890;SDS011;2971;52.420;7.080;2023-05-16T15:07:03;5.33;;;3.30;;
5890;SDS011;2971;52.420;7.080;2023-05-16T15:09:28;6.67;;;3.67;;
5890;SDS011;2971;52.420;7.080;2023-05-16T15:11:54;7.73;;;3.00;;
5890;SDS011;2971;52.420;7.080;2023-05-16T15:14:19;8.17;;;3.90;;
5890;SDS011;2971;52.420;7.080;2023-05-16T15:16:45;8.17;;;3.70;;
5890;SDS011;2971;52.420;7.080;2023-05-16T15:19:11;5.53;;;3.67;;
5890;SDS011;2971;52.420;7.080;2023-05-16T15:21:37;8.30;;;3.63;;
5890;SDS011;2971;52.420;7.080;2023-05-16T15:24:02;8.40;;;3.70;;
5890;SDS011;2971;52.420;7.080;2023-05-16T15:26:28;7.57;;;3.50;;